createdAt,value
2022-10-01T00:01:25.712Z,73.45
2022-10-01T00:03:53.559Z,73.01
2022-10-01T00:06:22.468Z,73.80
2022-10-01T00:08:50.845Z,74.82
2022-10-01T00:11:24.344Z,74.42
2022-10-01T00:13:52.979Z,73.75
2022-10-01T00:16:23.382Z,73.78
2022-10-01T00:18:50.912Z,73.53
2022-10-01T00:21:22.345Z,73.29
2022-10-01T00:23:58.345Z,72.98
2022-10-01T00:26:28.854Z,73.10
2022-10-01T00:28:59.103Z,73.24
2022-10-01T00:31:26.825Z,72.86
2022-10-01T00:33:55.269Z,72.81
2022-10-01T00:36:22.659Z,72.92
2022-10-01T00:38:49.986Z,72.57
2022-10-01T00:41:19.307Z,72.21
2022-10-01T00:43:50.933Z,72.25
2022-10-01T00:46:26.650Z,72.23
2022-10-01T00:49:06.552Z,72.18
2022-10-01T00:51:39.815Z,72.29
2022-10-01T00:54:22.810Z,72.36
2022-10-01T00:56:53.912Z,72.51
2022-10-01T00:59:21.569Z,72.42
2022-10-01T01:01:48.917Z,72.17
2022-10-01T01:04:18.948Z,72.21
2022-10-01T01:06:57.803Z,72.12
2022-10-01T01:09:34.004Z,71.85
2022-10-01T01:12:13.254Z,71.60
2022-10-01T01:14:58.805Z,71.89
2022-10-01T01:17:34.219Z,71.84
2022-10-01T01:20:19.858Z,71.64
2022-10-01T01:23:05.244Z,71.45
2022-10-01T01:25:59.465Z,71.76
2022-10-01T01:28:31.818Z,71.79
2022-10-01T01:31:04.115Z,72.11
2022-10-01T01:33:34.816Z,72.39
2022-10-01T01:36:08.213Z,72.54
2022-10-01T01:38:44.979Z,72.41
2022-10-01T01:41:14.425Z,72.35
2022-10-01T01:43:45.792Z,72.30
2022-10-01T01:46:17.396Z,72.00
2022-10-01T01:48:51.107Z,72.32
2022-10-01T01:51:41.380Z,72.98
2022-10-01T01:54:09.247Z,73.50
2022-10-01T01:56:37.005Z,73.40
2022-10-01T01:59:04.666Z,73.31
2022-10-01T02:01:42.366Z,72.81
2022-10-01T02:04:23.834Z,72.67
2022-10-01T02:07:27.089Z,72.39
2022-10-01T02:10:15.838Z,72.11
2022-10-01T02:12:55.122Z,71.82
2022-10-01T02:15:36.168Z,71.84
2022-10-01T02:18:19.220Z,72.19
2022-10-01T02:20:50.761Z,71.82
2022-10-01T02:23:33.995Z,71.73
2022-10-01T02:26:08.549Z,71.96
2022-10-01T02:28:39.532Z,71.70
2022-10-01T02:31:09.317Z,71.50
2022-10-01T02:33:39.361Z,71.64
2022-10-01T02:36:09.844Z,71.81
2022-10-01T02:38:41.093Z,71.51
2022-10-01T02:41:12.045Z,71.75
2022-10-01T02:43:57.294Z,71.64
2022-10-01T02:47:09.289Z,71.63
2022-10-01T02:49:39.577Z,71.76
2022-10-01T02:52:15.368Z,72.63
2022-10-01T02:55:03.443Z,72.78
2022-10-01T02:57:31.065Z,72.88
2022-10-01T03:00:06.649Z,72.17
2022-10-01T03:02:33.997Z,72.05
2022-10-01T03:05:02.174Z,71.96
2022-10-01T03:07:31.988Z,71.52
2022-10-01T03:09:59.108Z,71.71
2022-10-01T03:12:26.711Z,71.68
2022-10-01T03:14:53.880Z,71.82
2022-10-01T03:17:21.473Z,71.60
2022-10-01T03:19:49.079Z,71.51
2022-10-01T03:22:23.976Z,71.34
2022-10-01T03:24:52.353Z,71.21
2022-10-01T03:27:20.866Z,71.35
2022-10-01T03:29:48.462Z,70.99
2022-10-01T03:32:16.965Z,71.28
2022-10-01T03:34:44.156Z,71.48
2022-10-01T03:37:11.535Z,71.37
2022-10-01T03:39:38.720Z,71.96
2022-10-01T03:42:06.035Z,72.22
2022-10-01T03:44:33.781Z,72.00
2022-10-01T03:47:00.972Z,71.55
2022-10-01T03:49:28.126Z,71.69
2022-10-01T03:51:55.365Z,71.80
2022-10-01T03:54:22.607Z,71.66
2022-10-01T03:56:49.674Z,71.23
2022-10-01T03:59:17.058Z,70.92
2022-10-01T04:01:44.277Z,70.89
2022-10-01T04:04:11.489Z,70.81
2022-10-01T04:06:38.690Z,71.21
2022-10-01T04:09:05.880Z,71.11
2022-10-01T04:11:33.320Z,70.92
2022-10-01T04:14:01.066Z,70.79
2022-10-01T04:16:28.670Z,71.51
2022-10-01T04:18:55.956Z,71.47
2022-10-01T04:21:23.097Z,71.71
2022-10-01T04:23:50.669Z,71.65
2022-10-01T04:26:19.221Z,71.02
2022-10-01T04:28:46.970Z,70.77
2022-10-01T04:31:27.322Z,70.73
2022-10-01T04:33:57.039Z,70.84
2022-10-01T04:36:25.230Z,70.77
2022-10-01T04:38:57.867Z,70.66
2022-10-01T04:41:26.144Z,70.51
2022-10-01T04:43:53.530Z,70.46
2022-10-01T04:46:20.833Z,70.73
2022-10-01T04:48:49.574Z,70.52
2022-10-01T04:51:17.551Z,70.34
2022-10-01T04:53:44.743Z,70.48
2022-10-01T04:56:11.849Z,70.49
2022-10-01T04:58:38.971Z,70.55
2022-10-01T05:01:06.443Z,70.72
2022-10-01T05:03:34.663Z,71.51
2022-10-01T05:06:02.019Z,71.74
2022-10-01T05:08:30.317Z,72.19
2022-10-01T05:11:00.600Z,72.12
2022-10-01T05:13:30.298Z,71.70
2022-10-01T05:15:58.547Z,71.75
2022-10-01T05:18:25.811Z,72.63
2022-10-01T05:20:52.945Z,73.42
2022-10-01T05:23:20.180Z,74.51
2022-10-01T05:25:47.384Z,74.39
2022-10-01T05:28:19.864Z,74.40
2022-10-01T05:30:49.503Z,74.04
2022-10-01T05:33:17.138Z,73.88
2022-10-01T05:35:44.768Z,73.72
2022-10-01T05:38:12.053Z,73.69
2022-10-01T05:40:39.141Z,73.64
2022-10-01T05:43:06.276Z,73.55
2022-10-01T05:45:34.330Z,73.47
2022-10-01T05:48:05.097Z,73.26
2022-10-01T05:50:35.768Z,73.16
2022-10-01T05:53:03.130Z,73.23
2022-10-01T05:55:34.980Z,73.11
2022-10-01T05:58:05.420Z,72.65
2022-10-01T06:00:34.798Z,72.72
2022-10-01T06:03:03.760Z,73.41
2022-10-01T06:05:33.034Z,74.98
2022-10-01T06:08:01.032Z,78.72
2022-10-01T06:10:30.456Z,78.07
2022-10-01T06:13:07.491Z,77.00
2022-10-01T06:15:39.081Z,75.88
2022-10-01T06:18:11.013Z,75.29
2022-10-01T06:20:39.601Z,74.65
2022-10-01T06:23:12.314Z,74.32
2022-10-01T06:25:41.896Z,73.44
2022-10-01T06:28:11.597Z,72.87
2022-10-01T06:30:40.177Z,72.92
2022-10-01T06:33:10.336Z,72.98
2022-10-01T06:35:44.219Z,73.17
2022-10-01T06:38:11.988Z,74.77
2022-10-01T06:40:40.422Z,76.25
2022-10-01T06:43:08.664Z,75.95
2022-10-01T06:45:38.571Z,74.86
2022-10-01T06:48:05.946Z,74.38
2022-10-01T06:50:34.867Z,74.05
2022-10-01T06:53:02.853Z,73.95
2022-10-01T06:55:35.422Z,73.81
2022-10-01T06:58:05.842Z,74.64
2022-10-01T07:00:36.203Z,76.18
2022-10-01T07:03:11.147Z,74.77
2022-10-01T07:05:39.355Z,74.01
2022-10-01T07:08:07.266Z,75.44
2022-10-01T07:10:35.613Z,75.76
2022-10-01T07:13:17.322Z,76.79
2022-10-01T07:15:45.761Z,78.24
2022-10-01T07:18:13.862Z,79.61
2022-10-01T07:20:41.292Z,84.54
2022-10-01T07:23:11.939Z,86.34
2022-10-01T07:25:40.899Z,82.05
2022-10-01T07:28:16.921Z,79.19
2022-10-01T07:30:47.616Z,83.49
2022-10-01T07:33:18.463Z,82.46
2022-10-01T07:35:48.052Z,79.31
2022-10-01T07:38:15.748Z,78.50
2022-10-01T07:40:43.281Z,77.63
2022-10-01T07:43:10.893Z,76.76
2022-10-01T07:45:38.026Z,77.14
2022-10-01T07:48:05.895Z,75.80
2022-10-01T07:50:33.594Z,75.79
2022-10-01T07:53:00.812Z,75.56
2022-10-01T07:55:30.863Z,75.79
2022-10-01T07:58:01.605Z,75.21
2022-10-01T08:00:31.031Z,76.07
2022-10-01T08:02:58.359Z,76.46
2022-10-01T08:05:34.968Z,76.60
2022-10-01T08:08:05.705Z,78.45
2022-10-01T08:10:36.761Z,78.40
2022-10-01T08:13:08.401Z,79.41
2022-10-01T08:15:36.067Z,80.50
2022-10-01T08:18:04.834Z,82.08
2022-10-01T08:20:32.299Z,82.32
2022-10-01T08:23:18.609Z,81.66
2022-10-01T08:25:48.155Z,82.94
2022-10-01T08:28:16.501Z,83.80
2022-10-01T08:30:44.127Z,83.43
2022-10-01T08:33:12.797Z,82.90
2022-10-01T08:35:41.360Z,82.55
2022-10-01T08:38:09.920Z,83.95
2022-10-01T08:40:45.949Z,85.56
2022-10-01T08:43:29.646Z,85.35
2022-10-01T08:45:58.313Z,83.62
2022-10-01T08:49:02.532Z,83.41
2022-10-01T08:51:45.869Z,82.38
2022-10-01T08:54:26.103Z,80.33
2022-10-01T08:56:56.264Z,79.92
2022-10-01T08:59:36.235Z,80.79
2022-10-01T09:02:17.970Z,81.26
2022-10-01T09:04:46.769Z,81.29
2022-10-01T09:07:20.949Z,81.98
2022-10-01T09:10:13.970Z,82.62
2022-10-01T09:12:53.796Z,83.66
2022-10-01T09:15:24.198Z,82.98
2022-10-01T09:18:07.671Z,83.96
2022-10-01T09:20:56.230Z,82.34
2022-10-01T09:23:31.620Z,84.49
2022-10-01T09:26:02.333Z,82.29
2022-10-01T09:28:32.338Z,81.66
2022-10-01T09:31:11.776Z,83.85
2022-10-01T09:33:43.421Z,85.45
2022-10-01T09:36:16.793Z,81.64
2022-10-01T09:38:59.560Z,80.91
2022-10-01T09:41:26.988Z,83.88
2022-10-01T09:43:54.186Z,85.94
2022-10-01T09:46:26.724Z,84.57
2022-10-01T09:49:15.367Z,83.31
2022-10-01T09:51:50.395Z,83.66
2022-10-01T09:54:33.888Z,84.01
2022-10-01T09:57:14.972Z,84.74
2022-10-01T09:59:57.407Z,82.38
2022-10-01T10:02:49.093Z,84.37
2022-10-01T10:05:18.463Z,83.87
2022-10-01T10:07:58.223Z,82.95
2022-10-01T10:10:39.686Z,83.63
2022-10-01T10:13:10.891Z,84.19
2022-10-01T10:15:42.898Z,85.04
2022-10-01T10:18:23.694Z,85.52
2022-10-01T10:20:54.097Z,84.89
2022-10-01T10:23:26.263Z,84.15
2022-10-01T10:26:02.924Z,83.19
2022-10-01T10:28:44.006Z,83.50
2022-10-01T10:31:21.506Z,84.70
2022-10-01T10:34:21.608Z,85.70
2022-10-01T10:36:57.324Z,86.67
2022-10-01T10:39:29.466Z,86.80
2022-10-01T10:41:59.784Z,88.12
2022-10-01T10:44:35.255Z,89.51
2022-10-01T10:47:07.720Z,90.78
2022-10-01T10:49:43.949Z,89.26
2022-10-01T10:52:36.520Z,88.13
2022-10-01T10:55:32.733Z,87.62
2022-10-01T10:58:15.032Z,87.79
2022-10-01T11:00:50.064Z,88.57
2022-10-01T11:03:21.529Z,88.77
2022-10-01T11:05:52.466Z,88.52
2022-10-01T11:08:26.168Z,88.43
2022-10-01T11:11:27.908Z,87.31
2022-10-01T11:14:03.910Z,86.35
2022-10-01T11:17:00.616Z,82.87
2022-10-01T11:19:27.689Z,83.37
2022-10-01T11:22:06.879Z,82.16
2022-10-01T11:24:36.899Z,83.11
2022-10-01T11:27:36.358Z,83.66
2022-10-01T11:30:21.648Z,84.00
2022-10-01T11:33:22.346Z,81.02
2022-10-01T11:35:58.272Z,81.64
2022-10-01T11:38:38.018Z,82.50
2022-10-01T11:41:23.877Z,82.78
2022-10-01T11:43:58.402Z,82.79
2022-10-01T11:46:35.601Z,83.95
2022-10-01T11:49:29.080Z,84.87
2022-10-01T11:52:12.558Z,84.63
2022-10-01T11:54:56.353Z,84.29
2022-10-01T11:57:43.099Z,85.01
2022-10-01T12:00:13.945Z,86.64
2022-10-01T12:02:59.738Z,90.10
2022-10-01T12:05:31.371Z,94.02
2022-10-01T12:08:22.484Z,97.44
2022-10-01T12:11:05.613Z,99.54
2022-10-01T12:13:44.815Z,98.86
2022-10-01T12:16:34.455Z,100.00
2022-10-01T12:19:17.569Z,99.41
2022-10-01T12:21:57.547Z,99.40
2022-10-01T12:24:36.510Z,99.55
2022-10-01T12:27:31.095Z,100.00
2022-10-01T12:30:05.556Z,100.00
2022-10-01T12:32:46.001Z,100.00
2022-10-01T12:35:48.252Z,99.67
2022-10-01T12:38:36.857Z,99.51
2022-10-01T12:41:27.182Z,98.85
2022-10-01T12:44:03.777Z,98.64
2022-10-01T12:46:48.134Z,98.62
2022-10-01T12:49:24.256Z,99.58
2022-10-01T12:51:57.170Z,99.86
2022-10-01T12:54:50.572Z,100.00
2022-10-01T12:57:33.102Z,100.00
2022-10-01T13:00:05.161Z,100.00
2022-10-01T13:02:47.507Z,100.00
2022-10-01T13:05:27.929Z,100.00
2022-10-01T13:08:10.074Z,100.00
2022-10-01T13:10:59.978Z,100.00
2022-10-01T13:13:34.861Z,100.00
2022-10-01T13:16:28.659Z,100.00
2022-10-01T13:18:55.770Z,100.00
2022-10-01T13:21:35.053Z,95.76
2022-10-01T13:24:12.466Z,100.00
2022-10-01T13:26:59.172Z,98.21
2022-10-01T13:29:41.457Z,100.00
2022-10-01T13:32:29.229Z,100.00
2022-10-01T13:34:58.213Z,100.00
2022-10-01T13:37:31.288Z,100.00
2022-10-01T13:40:00.914Z,100.00
2022-10-01T13:42:45.704Z,100.00
2022-10-01T13:45:51.321Z,100.00
2022-10-01T13:48:29.455Z,100.00
2022-10-01T13:51:03.231Z,100.00
2022-10-01T13:53:33.905Z,100.00
2022-10-01T13:56:01.297Z,100.00
2022-10-01T13:58:41.334Z,100.00
2022-10-01T14:01:42.049Z,100.00
2022-10-01T14:04:39.731Z,100.00
2022-10-01T14:07:22.074Z,100.00
2022-10-01T14:09:52.375Z,100.00
2022-10-01T14:12:50.166Z,100.00
2022-10-01T14:15:42.184Z,100.00
2022-10-01T14:18:15.927Z,100.00
2022-10-01T14:21:20.693Z,100.00
2022-10-01T14:23:56.818Z,100.00
2022-10-01T14:26:59.386Z,100.00
2022-10-01T14:29:26.508Z,100.00
2022-10-01T14:32:10.562Z,100.00
2022-10-01T14:34:43.744Z,100.00
2022-10-01T14:37:17.309Z,100.00
2022-10-01T14:39:45.111Z,100.00
2022-10-01T14:42:18.789Z,100.00
2022-10-01T14:44:47.543Z,100.00
2022-10-01T14:47:21.210Z,100.00
2022-10-01T14:49:49.221Z,100.00
2022-10-01T14:52:26.007Z,100.00
2022-10-01T14:54:59.350Z,100.00
2022-10-01T14:57:39.869Z,100.00
2022-10-01T15:00:14.031Z,100.00
2022-10-01T15:02:52.872Z,100.00
2022-10-01T15:05:30.496Z,100.00
2022-10-01T15:07:57.564Z,100.00
2022-10-01T15:10:27.633Z,100.00
2022-10-01T15:12:55.798Z,100.00
2022-10-01T15:15:38.537Z,100.00
2022-10-01T15:18:06.025Z,100.00
2022-10-01T15:20:33.157Z,100.00
2022-10-01T15:23:01.671Z,100.00
2022-10-01T15:25:31.696Z,100.00
2022-10-01T15:27:59.300Z,100.00
2022-10-01T15:30:28.146Z,100.00
2022-10-01T15:32:55.574Z,100.00
2022-10-01T15:35:24.333Z,100.00
2022-10-01T15:37:52.803Z,100.00
2022-10-01T15:40:35.467Z,100.00
2022-10-01T15:43:08.924Z,100.00
2022-10-01T15:45:36.260Z,100.00
2022-10-01T15:48:03.360Z,100.00
2022-10-01T15:50:36.619Z,100.00
2022-10-01T15:53:10.463Z,100.00
2022-10-01T15:55:50.453Z,100.00
2022-10-01T15:58:22.191Z,100.00
2022-10-01T16:01:03.551Z,100.00
2022-10-01T16:03:34.657Z,100.00
2022-10-01T16:06:04.196Z,100.00
2022-10-01T16:08:37.212Z,100.00
2022-10-01T16:11:13.484Z,99.17
2022-10-01T16:13:44.898Z,98.28
2022-10-01T16:16:30.801Z,97.23
2022-10-01T16:19:19.517Z,96.11
2022-10-01T16:22:23.212Z,98.36
2022-10-01T16:24:51.495Z,99.99
2022-10-01T16:27:25.056Z,98.14
2022-10-01T16:29:55.183Z,96.85
2022-10-01T16:32:22.753Z,96.21
2022-10-01T16:34:50.301Z,95.66
2022-10-01T16:37:17.981Z,95.32
2022-10-01T16:39:45.055Z,97.42
2022-10-01T16:42:24.552Z,97.22
2022-10-01T16:44:52.519Z,99.39
2022-10-01T16:47:19.626Z,97.13
2022-10-01T16:49:48.620Z,96.97
2022-10-01T16:52:16.746Z,96.25
2022-10-01T16:54:45.043Z,95.16
2022-10-01T16:57:12.171Z,94.63
2022-10-01T16:59:39.364Z,95.54
2022-10-01T17:02:14.815Z,97.48
2022-10-01T17:04:41.955Z,100.00
2022-10-01T17:07:09.087Z,100.00
2022-10-01T17:09:36.226Z,100.00
2022-10-01T17:12:03.363Z,100.00
2022-10-01T17:14:30.469Z,99.46
2022-10-01T17:16:57.651Z,98.14
2022-10-01T17:19:25.040Z,98.07
2022-10-01T17:21:53.266Z,99.90
2022-10-01T17:24:20.356Z,98.85
2022-10-01T17:26:47.629Z,100.00
2022-10-01T17:29:14.821Z,100.00
2022-10-01T17:31:44.956Z,100.00
2022-10-01T17:34:13.203Z,100.00
2022-10-01T17:36:40.433Z,100.00
2022-10-01T17:39:07.590Z,100.00
2022-10-01T17:41:34.868Z,98.49
2022-10-01T17:44:02.071Z,97.66
2022-10-01T17:46:30.958Z,96.23
2022-10-01T17:48:58.094Z,94.85
2022-10-01T17:51:25.948Z,94.02
2022-10-01T17:53:55.046Z,94.11
2022-10-01T17:56:22.445Z,93.75
2022-10-01T17:58:49.800Z,93.19
2022-10-01T18:01:20.399Z,99.96
2022-10-01T18:03:48.352Z,96.06
2022-10-01T18:06:16.382Z,94.72
2022-10-01T18:08:58.914Z,94.06
2022-10-01T18:11:28.600Z,93.61
2022-10-01T18:13:55.974Z,94.68
2022-10-01T18:16:24.308Z,95.07
2022-10-01T18:21:47.347Z,95.68
2022-10-01T18:24:16.175Z,93.47
2022-10-01T18:26:44.740Z,97.01
2022-10-01T18:29:20.732Z,100.00
2022-10-01T18:31:52.286Z,100.00
2022-10-01T18:34:33.026Z,100.00
2022-10-01T18:37:04.491Z,100.00
2022-10-01T18:39:44.811Z,100.00
2022-10-01T18:42:26.442Z,100.00
2022-10-01T18:44:59.535Z,100.00
2022-10-01T18:47:55.757Z,100.00
2022-10-01T18:50:43.293Z,100.00
2022-10-01T18:53:29.225Z,100.00
2022-10-01T18:56:02.376Z,100.00
2022-10-01T18:58:46.299Z,100.00
2022-10-01T19:01:19.537Z,100.00
2022-10-01T19:04:11.691Z,100.00
2022-10-01T19:07:08.308Z,100.00
2022-10-01T19:09:44.660Z,100.00
2022-10-01T19:12:21.884Z,100.00
2022-10-01T19:14:58.215Z,100.00
2022-10-01T19:17:40.750Z,100.00
2022-10-01T19:20:23.628Z,100.00
2022-10-01T19:22:56.904Z,100.00
2022-10-01T19:25:47.775Z,100.00
2022-10-01T19:28:40.896Z,100.00
2022-10-01T19:31:20.784Z,100.00
2022-10-01T19:34:01.028Z,100.00
2022-10-01T19:36:37.488Z,100.00
2022-10-01T19:39:16.392Z,100.00
2022-10-01T19:42:05.829Z,100.00
2022-10-01T19:44:42.853Z,100.00
2022-10-01T19:47:54.944Z,100.00
2022-10-01T19:50:28.380Z,100.00
2022-10-01T19:52:58.353Z,100.00
2022-10-01T19:55:35.075Z,100.00
2022-10-01T19:58:16.608Z,100.00
2022-10-01T20:00:47.411Z,100.00
2022-10-01T20:03:23.598Z,100.00
2022-10-01T20:05:57.209Z,100.00
2022-10-01T20:08:38.464Z,100.00
2022-10-01T20:11:37.825Z,100.00
2022-10-01T20:14:37.072Z,100.00
2022-10-01T20:17:15.808Z,100.00
2022-10-01T20:19:55.259Z,100.00
2022-10-01T20:22:34.180Z,100.00
2022-10-01T20:25:24.562Z,100.00
2022-10-01T20:28:27.097Z,100.00
2022-10-01T20:31:10.615Z,100.00
2022-10-01T20:34:05.430Z,100.00
2022-10-01T20:36:34.893Z,100.00
2022-10-01T20:39:16.241Z,100.00
2022-10-01T20:41:49.679Z,100.00
2022-10-01T20:44:25.483Z,100.00
2022-10-01T20:46:59.187Z,100.00
2022-10-01T20:49:52.396Z,100.00
2022-10-01T20:52:27.976Z,100.00
2022-10-01T20:55:05.344Z,100.00
2022-10-01T20:57:39.740Z,100.00
2022-10-01T21:00:17.629Z,100.00
2022-10-01T21:02:48.422Z,100.00
2022-10-01T21:05:44.748Z,100.00
2022-10-01T21:08:53.867Z,100.00
2022-10-01T21:11:28.037Z,100.00
2022-10-01T21:14:03.958Z,100.00
2022-10-01T21:16:52.796Z,100.00
2022-10-01T21:19:44.497Z,100.00
2022-10-01T21:22:31.113Z,100.00
2022-10-01T21:25:01.461Z,100.00
2022-10-01T21:27:42.967Z,100.00
2022-10-01T21:30:19.479Z,100.00
2022-10-01T21:33:15.339Z,100.00
2022-10-01T21:35:51.225Z,100.00
2022-10-01T21:38:30.321Z,100.00
2022-10-01T21:41:13.570Z,99.19
2022-10-01T21:43:43.652Z,98.68
2022-10-01T21:46:37.851Z,98.32
2022-10-01T21:49:30.658Z,97.96
2022-10-01T21:52:36.235Z,97.21
2022-10-01T21:55:24.803Z,95.09
2022-10-01T21:58:25.924Z,94.78
2022-10-01T22:01:11.762Z,93.65
2022-10-01T22:03:51.402Z,93.73
2022-10-01T22:06:32.749Z,93.41
2022-10-01T22:09:12.481Z,92.60
2022-10-01T22:12:05.726Z,93.15
2022-10-01T22:14:33.237Z,95.40
2022-10-01T22:17:11.717Z,96.72
2022-10-01T22:19:43.243Z,97.65
2022-10-01T22:22:16.959Z,98.17
2022-10-01T22:24:48.306Z,98.67
2022-10-01T22:27:32.410Z,97.43
2022-10-01T22:30:08.526Z,97.69
2022-10-01T22:32:43.598Z,100.00
2022-10-01T22:35:21.911Z,100.00
2022-10-01T22:38:03.924Z,100.00
2022-10-01T22:40:39.064Z,100.00
2022-10-01T22:43:11.148Z,100.00
2022-10-01T22:46:01.312Z,100.00
2022-10-01T22:48:56.679Z,100.00
2022-10-01T22:51:37.539Z,100.00
2022-10-01T22:54:24.346Z,100.00
2022-10-01T22:57:14.698Z,100.00
2022-10-01T22:59:54.492Z,100.00
2022-10-01T23:02:33.052Z,100.00
2022-10-01T23:05:03.247Z,100.00
2022-10-01T23:07:42.557Z,100.00
2022-10-01T23:10:32.884Z,100.00
2022-10-01T23:13:19.462Z,100.00
2022-10-01T23:16:13.045Z,100.00
2022-10-01T23:21:26.332Z,100.00
2022-10-01T23:24:02.473Z,100.00
2022-10-01T23:26:36.469Z,100.00
2022-10-01T23:29:18.900Z,100.00
2022-10-01T23:32:20.258Z,100.00
2022-10-01T23:35:00.227Z,100.00
2022-10-01T23:37:41.100Z,100.00
2022-10-01T23:40:13.142Z,100.00
2022-10-01T23:42:46.441Z,100.00
2022-10-01T23:45:30.513Z,100.00
2022-10-01T23:48:13.893Z,100.00
2022-10-01T23:51:02.573Z,100.00
2022-10-01T23:53:42.980Z,100.00
2022-10-01T23:56:41.241Z,100.00
2022-10-01T23:59:33.707Z,100.00
